sensor_id;sensor_type;location;lat;lon;timestamp;pressure;altitude;pressure_sealevel;temperature;humidity
61119;BME280;51448;51.660;5.824;2022-08-19T00:00:07;101222.06;;;18.05;85.76
61119;BME280;51448;51.660;5.824;2022-08-19T00:02:36;101223.94;;;18.03;86.02
61119;BME280;51448;51.660;5.824;2022-08-19T00:05:17;101229.66;;;17.96;86.00
61119;BME280;51448;51.660;5.824;2022-08-19T00:07:46;101221.94;;;17.91;85.99
61119;BME280;51448;51.660;5.824;2022-08-19T00:10:15;101220.31;;;17.88;86.40
61119;BME280;51448;51.660;5.824;2022-08-19T00:12:43;101226.63;;;17.86;86.96
61119;BME280;51448;51.660;5.824;2022-08-19T00:15:15;101230.25;;;17.85;86.73
61119;BME280;51448;51.660;5.824;2022-08-19T00:17:46;101222.38;;;17.82;86.50
61119;BME280;51448;51.660;5.824;2022-08-19T00:20:17;101233.00;;;17.82;87.34
61119;BME280;51448;51.660;5.824;2022-08-19T00:22:47;101225.19;;;17.79;86.43
61119;BME280;51448;51.660;5.824;2022-08-19T00:25:16;101230.66;;;17.76;86.87
61119;BME280;51448;51.660;5.824;2022-08-19T00:27:43;101229.09;;;17.72;86.87
61119;BME280;51448;51.660;5.824;2022-08-19T00:30:11;101224.81;;;17.69;87.07
61119;BME280;51448;51.660;5.824;2022-08-19T00:32:39;101227.53;;;17.67;87.04
61119;BME280;51448;51.660;5.824;2022-08-19T00:35:07;101232.19;;;17.64;87.25
61119;BME280;51448;51.660;5.824;2022-08-19T00:37:37;101230.50;;;17.61;86.86
61119;BME280;51448;51.660;5.824;2022-08-19T00:40:12;101228.88;;;17.59;86.85
61119;BME280;51448;51.660;5.824;2022-08-19T00:42:40;101233.50;;;17.55;86.69
61119;BME280;51448;51.660;5.824;2022-08-19T00:45:13;101229.91;;;17.56;86.71
61119;BME280;51448;51.660;5.824;2022-08-19T00:47:45;101231.84;;;17.53;86.56
61119;BME280;51448;51.660;5.824;2022-08-19T00:50:15;101226.59;;;17.51;86.56
61119;BME280;51448;51.660;5.824;2022-08-19T00:52:48;101226.78;;;17.48;87.01
61119;BME280;51448;51.660;5.824;2022-08-19T00:55:21;101218.09;;;17.44;87.46
61119;BME280;51448;51.660;5.824;2022-08-19T00:57:56;101221.78;;;17.42;87.72
61119;BME280;51448;51.660;5.824;2022-08-19T01:00:29;101225.53;;;17.38;87.04
61119;BME280;51448;51.660;5.824;2022-08-19T01:02:57;101226.63;;;17.34;87.03
61119;BME280;51448;51.660;5.824;2022-08-19T01:05:27;101235.50;;;17.33;87.68
61119;BME280;51448;51.660;5.824;2022-08-19T01:07:58;101241.91;;;17.28;87.51
61119;BME280;51448;51.660;5.824;2022-08-19T01:10:28;101235.13;;;17.23;86.75
61119;BME280;51448;51.660;5.824;2022-08-19T01:13:03;101237.13;;;17.18;86.89
61119;BME280;51448;51.660;5.824;2022-08-19T01:15:39;101242.38;;;17.19;87.50
61119;BME280;51448;51.660;5.824;2022-08-19T01:18:14;101245.19;;;17.16;87.27
61119;BME280;51448;51.660;5.824;2022-08-19T01:20:44;101239.06;;;17.14;87.46
61119;BME280;51448;51.660;5.824;2022-08-19T01:23:13;101244.50;;;17.13;87.51
61119;BME280;51448;51.660;5.824;2022-08-19T01:25:49;101236.59;;;17.11;87.78
61119;BME280;51448;51.660;5.824;2022-08-19T01:28:25;101237.50;;;17.10;88.07
61119;BME280;51448;51.660;5.824;2022-08-19T01:31:00;101235.00;;;17.07;88.51
61119;BME280;51448;51.660;5.824;2022-08-19T01:33:34;101230.63;;;17.06;88.50
61119;BME280;51448;51.660;5.824;2022-08-19T01:36:10;101228.91;;;17.05;88.97
61119;BME280;51448;51.660;5.824;2022-08-19T01:38:42;101231.56;;;17.05;89.24
61119;BME280;51448;51.660;5.824;2022-08-19T01:41:11;101233.38;;;17.04;88.89
61119;BME280;51448;51.660;5.824;2022-08-19T01:43:40;101232.50;;;17.04;88.82
61119;BME280;51448;51.660;5.824;2022-08-19T01:46:27;101238.75;;;17.03;89.41
61119;BME280;51448;51.660;5.824;2022-08-19T01:48:56;101239.69;;;17.02;89.22
61119;BME280;51448;51.660;5.824;2022-08-19T01:51:23;101245.94;;;17.01;89.25
61119;BME280;51448;51.660;5.824;2022-08-19T01:53:52;101238.81;;;17.01;90.00
61119;BME280;51448;51.660;5.824;2022-08-19T01:56:21;101238.88;;;17.00;89.94
61119;BME280;51448;51.660;5.824;2022-08-19T01:59:02;101239.69;;;17.02;89.52
61119;BME280;51448;51.660;5.824;2022-08-19T02:01:33;101245.16;;;16.99;90.00
61119;BME280;51448;51.660;5.824;2022-08-19T02:04:02;101258.50;;;16.97;89.98
61119;BME280;51448;51.660;5.824;2022-08-19T02:06:29;101258.56;;;16.96;90.05
61119;BME280;51448;51.660;5.824;2022-08-19T02:08:57;101253.34;;;16.94;89.63
61119;BME280;51448;51.660;5.824;2022-08-19T02:11:28;101254.22;;;16.95;90.47
61119;BME280;51448;51.660;5.824;2022-08-19T02:14:00;101255.06;;;16.95;90.74
61119;BME280;51448;51.660;5.824;2022-08-19T02:16:29;101260.31;;;16.97;91.16
61119;BME280;51448;51.660;5.824;2022-08-19T02:18:58;101264.59;;;16.99;91.01
61119;BME280;51448;51.660;5.824;2022-08-19T02:21:29;101257.50;;;17.00;91.43
61119;BME280;51448;51.660;5.824;2022-08-19T02:23:57;101250.31;;;17.02;91.30
61119;BME280;51448;51.660;5.824;2022-08-19T02:26:26;101250.41;;;17.00;91.40
61119;BME280;51448;51.660;5.824;2022-08-19T02:28:54;101249.44;;;17.01;91.83
61119;BME280;51448;51.660;5.824;2022-08-19T02:31:24;101256.50;;;17.02;92.11
61119;BME280;51448;51.660;5.824;2022-08-19T02:33:53;101252.97;;;17.02;91.78
61119;BME280;51448;51.660;5.824;2022-08-19T02:36:24;101262.81;;;17.00;91.96
61119;BME280;51448;51.660;5.824;2022-08-19T02:38:52;101250.47;;;16.99;91.32
61119;BME280;51448;51.660;5.824;2022-08-19T02:41:27;101262.03;;;16.98;91.90
61119;BME280;51448;51.660;5.824;2022-08-19T02:44:00;101261.22;;;16.96;91.75
61119;BME280;51448;51.660;5.824;2022-08-19T02:46:51;101261.41;;;16.93;91.55
61119;BME280;51448;51.660;5.824;2022-08-19T02:49:19;101265.91;;;16.91;92.13
61119;BME280;51448;51.660;5.824;2022-08-19T02:51:47;101268.56;;;16.91;92.13
61119;BME280;51448;51.660;5.824;2022-08-19T02:54:14;101265.13;;;16.88;91.67
61119;BME280;51448;51.660;5.824;2022-08-19T02:56:43;101267.00;;;16.86;91.94
61119;BME280;51448;51.660;5.824;2022-08-19T02:59:11;101269.78;;;16.83;91.88
61119;BME280;51448;51.660;5.824;2022-08-19T03:01:40;101258.31;;;16.83;92.45
61119;BME280;51448;51.660;5.824;2022-08-19T03:04:11;101252.13;;;16.82;92.21
61119;BME280;51448;51.660;5.824;2022-08-19T03:06:42;101258.50;;;16.78;91.63
61119;BME280;51448;51.660;5.824;2022-08-19T03:09:12;101263.94;;;16.75;92.08
61119;BME280;51448;51.660;5.824;2022-08-19T03:11:41;101263.25;;;16.72;91.58
61119;BME280;51448;51.660;5.824;2022-08-19T03:14:09;101262.53;;;16.68;91.85
61119;BME280;51448;51.660;5.824;2022-08-19T03:16:49;101264.38;;;16.66;92.20
61119;BME280;51448;51.660;5.824;2022-08-19T03:19:19;101263.72;;;16.61;91.57
61119;BME280;51448;51.660;5.824;2022-08-19T03:21:48;101254.97;;;16.59;91.73
61119;BME280;51448;51.660;5.824;2022-08-19T03:24:17;101262.94;;;16.59;92.17
61119;BME280;51448;51.660;5.824;2022-08-19T03:26:49;101266.53;;;16.58;93.21
61119;BME280;51448;51.660;5.824;2022-08-19T03:29:19;101268.34;;;16.57;92.78
61119;BME280;51448;51.660;5.824;2022-08-19T03:31:59;101266.53;;;16.58;92.94
61119;BME280;51448;51.660;5.824;2022-08-19T03:34:32;101275.28;;;16.60;93.59
61119;BME280;51448;51.660;5.824;2022-08-19T03:37:07;101276.09;;;16.62;94.40
61119;BME280;51448;51.660;5.824;2022-08-19T03:39:38;101279.59;;;16.62;94.31
61119;BME280;51448;51.660;5.824;2022-08-19T03:42:08;101278.59;;;16.65;94.36
61119;BME280;51448;51.660;5.824;2022-08-19T03:44:56;101275.94;;;16.65;94.85
61119;BME280;51448;51.660;5.824;2022-08-19T03:47:23;101267.91;;;16.66;94.79
61119;BME280;51448;51.660;5.824;2022-08-19T03:49:51;101257.28;;;16.66;94.17
61119;BME280;51448;51.660;5.824;2022-08-19T03:52:18;101266.09;;;16.67;94.20
61119;BME280;51448;51.660;5.824;2022-08-19T03:54:46;101272.34;;;16.66;93.75
61119;BME280;51448;51.660;5.824;2022-08-19T03:57:13;101261.78;;;16.64;93.98
61119;BME280;51448;51.660;5.824;2022-08-19T03:59:41;101264.50;;;16.63;94.40
61119;BME280;51448;51.660;5.824;2022-08-19T04:02:10;101271.69;;;16.61;94.37
61119;BME280;51448;51.660;5.824;2022-08-19T04:04:41;101269.97;;;16.60;94.97
61119;BME280;51448;51.660;5.824;2022-08-19T04:07:12;101271.00;;;16.57;95.04
61119;BME280;51448;51.660;5.824;2022-08-19T04:09:48;101275.50;;;16.55;94.83
61119;BME280;51448;51.660;5.824;2022-08-19T04:12:17;101264.97;;;16.54;94.70
61119;BME280;51448;51.660;5.824;2022-08-19T04:14:47;101268.53;;;16.53;94.59
61119;BME280;51448;51.660;5.824;2022-08-19T04:17:14;101261.50;;;16.52;94.69
61119;BME280;51448;51.660;5.824;2022-08-19T04:19:42;101262.38;;;16.52;95.55
61119;BME280;51448;51.660;5.824;2022-08-19T04:22:10;101253.53;;;16.52;95.05
61119;BME280;51448;51.660;5.824;2022-08-19T04:24:38;101250.03;;;16.51;95.33
61119;BME280;51448;51.660;5.824;2022-08-19T04:27:06;101250.03;;;16.51;94.84
61119;BME280;51448;51.660;5.824;2022-08-19T04:29:33;101245.63;;;16.50;95.75
61119;BME280;51448;51.660;5.824;2022-08-19T04:32:02;101243.84;;;16.50;96.17
61119;BME280;51448;51.660;5.824;2022-08-19T04:34:36;101244.00;;;16.47;95.78
61119;BME280;51448;51.660;5.824;2022-08-19T04:37:26;101248.50;;;16.45;96.16
61119;BME280;51448;51.660;5.824;2022-08-19T04:40:04;101246.78;;;16.44;96.38
61119;BME280;51448;51.660;5.824;2022-08-19T04:42:51;101237.97;;;16.44;96.22
61119;BME280;51448;51.660;5.824;2022-08-19T04:45:19;101238.81;;;16.44;96.74
61119;BME280;51448;51.660;5.824;2022-08-19T04:47:49;101238.75;;;16.46;97.13
61119;BME280;51448;51.660;5.824;2022-08-19T04:50:25;101246.59;;;16.49;97.22
61119;BME280;51448;51.660;5.824;2022-08-19T04:52:53;101250.88;;;16.52;97.16
61119;BME280;51448;51.660;5.824;2022-08-19T04:55:23;101243.78;;;16.52;97.98
61119;BME280;51448;51.660;5.824;2022-08-19T04:57:54;101252.47;;;16.56;97.30
61119;BME280;51448;51.660;5.824;2022-08-19T05:00:22;101254.97;;;16.59;97.86
61119;BME280;51448;51.660;5.824;2022-08-19T05:02:50;101243.44;;;16.60;97.73
61119;BME280;51448;51.660;5.824;2022-08-19T05:05:18;101255.69;;;16.62;98.05
61119;BME280;51448;51.660;5.824;2022-08-19T05:07:47;101262.66;;;16.65;98.15
61119;BME280;51448;51.660;5.824;2022-08-19T05:10:14;101255.47;;;16.67;97.64
61119;BME280;51448;51.660;5.824;2022-08-19T05:12:42;101267.84;;;16.68;97.74
61119;BME280;51448;51.660;5.824;2022-08-19T05:15:10;101270.31;;;16.71;98.44
61119;BME280;51448;51.660;5.824;2022-08-19T05:17:38;101268.47;;;16.73;98.51
61119;BME280;51448;51.660;5.824;2022-08-19T05:20:25;101277.31;;;16.74;98.07
61119;BME280;51448;51.660;5.824;2022-08-19T05:23:12;101278.09;;;16.76;98.31
61119;BME280;51448;51.660;5.824;2022-08-19T05:25:50;101272.69;;;16.77;98.70
61119;BME280;51448;51.660;5.824;2022-08-19T05:28:20;101269.97;;;16.79;98.56
61119;BME280;51448;51.660;5.824;2022-08-19T05:30:47;101273.47;;;16.81;98.35
61119;BME280;51448;51.660;5.824;2022-08-19T05:33:18;101277.75;;;16.83;98.13
61119;BME280;51448;51.660;5.824;2022-08-19T05:35:45;101288.25;;;16.86;98.65
61119;BME280;51448;51.660;5.824;2022-08-19T05:38:13;101294.28;;;16.90;98.48
61119;BME280;51448;51.660;5.824;2022-08-19T05:40:41;101291.41;;;16.95;98.47
61119;BME280;51448;51.660;5.824;2022-08-19T05:43:09;101291.25;;;16.98;98.48
61119;BME280;51448;51.660;5.824;2022-08-19T05:45:40;101288.41;;;17.02;98.76
61119;BME280;51448;51.660;5.824;2022-08-19T05:48:09;101281.41;;;17.00;98.28
61119;BME280;51448;51.660;5.824;2022-08-19T05:50:40;101289.97;;;17.06;98.61
61119;BME280;51448;51.660;5.824;2022-08-19T05:53:08;101295.00;;;17.13;98.62
61119;BME280;51448;51.660;5.824;2022-08-19T05:55:36;101293.81;;;17.18;99.13
61119;BME280;51448;51.660;5.824;2022-08-19T05:58:05;101291.81;;;17.23;98.86
61119;BME280;51448;51.660;5.824;2022-08-19T06:00:36;101282.56;;;17.30;99.02
61119;BME280;51448;51.660;5.824;2022-08-19T06:03:04;101284.88;;;17.38;99.07
61119;BME280;51448;51.660;5.824;2022-08-19T06:05:40;101291.63;;;17.45;99.72
61119;BME280;51448;51.660;5.824;2022-08-19T06:08:19;101290.28;;;17.54;99.62
61119;BME280;51448;51.660;5.824;2022-08-19T06:11:16;101284.66;;;17.60;99.72
61119;BME280;51448;51.660;5.824;2022-08-19T06:13:51;101289.75;;;17.65;99.97
61119;BME280;51448;51.660;5.824;2022-08-19T06:16:27;101285.84;;;17.72;99.63
61119;BME280;51448;51.660;5.824;2022-08-19T06:19:00;101292.63;;;17.78;99.98
61119;BME280;51448;51.660;5.824;2022-08-19T06:21:30;101289.69;;;17.84;99.86
61119;BME280;51448;51.660;5.824;2022-08-19T06:23:58;101293.78;;;17.91;99.96
61119;BME280;51448;51.660;5.824;2022-08-19T06:26:26;101298.78;;;17.97;99.65
61119;BME280;51448;51.660;5.824;2022-08-19T06:28:55;101291.34;;;18.04;99.43
61119;BME280;51448;51.660;5.824;2022-08-19T06:31:27;101295.47;;;18.09;99.63
61119;BME280;51448;51.660;5.824;2022-08-19T06:33:55;101294.31;;;18.15;99.20
61119;BME280;51448;51.660;5.824;2022-08-19T06:36:34;101299.31;;;18.21;99.30
61119;BME280;51448;51.660;5.824;2022-08-19T06:39:10;101295.38;;;18.28;99.09
61119;BME280;51448;51.660;5.824;2022-08-19T06:41:44;101296.66;;;18.37;98.82
61119;BME280;51448;51.660;5.824;2022-08-19T06:44:22;101302.44;;;18.45;97.96
61119;BME280;51448;51.660;5.824;2022-08-19T06:46:54;101300.22;;;18.54;98.56
61119;BME280;51448;51.660;5.824;2022-08-19T06:49:23;101295.28;;;18.63;97.80
61119;BME280;51448;51.660;5.824;2022-08-19T06:51:52;101294.88;;;18.71;97.43
61119;BME280;51448;51.660;5.824;2022-08-19T06:54:20;101293.44;;;18.81;96.63
61119;BME280;51448;51.660;5.824;2022-08-19T06:56:49;101296.34;;;18.93;97.03
61119;BME280;51448;51.660;5.824;2022-08-19T06:59:20;101296.63;;;19.04;97.14
61119;BME280;51448;51.660;5.824;2022-08-19T07:01:51;101296.78;;;19.17;97.15
61119;BME280;51448;51.660;5.824;2022-08-19T07:04:26;101303.81;;;19.34;96.23
61119;BME280;51448;51.660;5.824;2022-08-19T07:07:07;101297.53;;;19.50;95.60
61119;BME280;51448;51.660;5.824;2022-08-19T07:09:48;101290.34;;;19.67;95.61
61119;BME280;51448;51.660;5.824;2022-08-19T07:12:30;101294.72;;;19.84;94.33
61119;BME280;51448;51.660;5.824;2022-08-19T07:15:05;101296.28;;;20.02;94.63
61119;BME280;51448;51.660;5.824;2022-08-19T07:17:35;101297.91;;;20.19;94.18
61119;BME280;51448;51.660;5.824;2022-08-19T07:20:09;101308.53;;;20.35;93.20
61119;BME280;51448;51.660;5.824;2022-08-19T07:22:38;101317.47;;;20.48;92.86
61119;BME280;51448;51.660;5.824;2022-08-19T07:25:08;101317.84;;;20.57;91.95
61119;BME280;51448;51.660;5.824;2022-08-19T07:27:36;101311.13;;;20.65;91.63
61119;BME280;51448;51.660;5.824;2022-08-19T07:30:08;101314.94;;;20.76;91.39
61119;BME280;51448;51.660;5.824;2022-08-19T07:32:40;101307.09;;;20.87;91.35
61119;BME280;51448;51.660;5.824;2022-08-19T07:35:09;101310.72;;;21.00;90.39
61119;BME280;51448;51.660;5.824;2022-08-19T07:37:37;101312.47;;;21.14;90.59
61119;BME280;51448;51.660;5.824;2022-08-19T07:40:07;101314.91;;;21.32;90.35
61119;BME280;51448;51.660;5.824;2022-08-19T07:42:35;101319.84;;;21.38;89.07
61119;BME280;51448;51.660;5.824;2022-08-19T07:45:03;101331.59;;;21.49;88.96
61119;BME280;51448;51.660;5.824;2022-08-19T07:47:32;101330.66;;;21.63;88.59
61119;BME280;51448;51.660;5.824;2022-08-19T07:50:18;101337.34;;;21.70;88.04
61119;BME280;51448;51.660;5.824;2022-08-19T07:52:48;101332.84;;;21.84;87.60
61119;BME280;51448;51.660;5.824;2022-08-19T07:55:20;101337.94;;;21.88;86.66
61119;BME280;51448;51.660;5.824;2022-08-19T07:58:11;101336.63;;;21.94;86.75
61119;BME280;51448;51.660;5.824;2022-08-19T08:00:43;101334.19;;;22.04;86.77
61119;BME280;51448;51.660;5.824;2022-08-19T08:03:15;101335.94;;;22.18;85.73
61119;BME280;51448;51.660;5.824;2022-08-19T08:05:46;101335.09;;;22.30;85.63
61119;BME280;51448;51.660;5.824;2022-08-19T08:08:32;101341.53;;;22.40;85.30
61119;BME280;51448;51.660;5.824;2022-08-19T08:11:20;101335.84;;;22.58;84.94
61119;BME280;51448;51.660;5.824;2022-08-19T08:13:50;101341.97;;;22.73;85.06
61119;BME280;51448;51.660;5.824;2022-08-19T08:16:28;101347.06;;;22.88;84.27
61119;BME280;51448;51.660;5.824;2022-08-19T08:18:58;101346.63;;;22.95;83.17
61119;BME280;51448;51.660;5.824;2022-08-19T08:21:27;101354.16;;;23.02;82.79
61119;BME280;51448;51.660;5.824;2022-08-19T08:23:55;101350.47;;;23.16;82.59
61119;BME280;51448;51.660;5.824;2022-08-19T08:26:23;101352.16;;;23.30;82.31
61119;BME280;51448;51.660;5.824;2022-08-19T08:28:52;101363.03;;;23.40;81.46
61119;BME280;51448;51.660;5.824;2022-08-19T08:31:20;101354.53;;;23.46;80.88
61119;BME280;51448;51.660;5.824;2022-08-19T08:33:48;101359.44;;;23.52;79.75
61119;BME280;51448;51.660;5.824;2022-08-19T08:36:16;101356.53;;;23.55;79.89
61119;BME280;51448;51.660;5.824;2022-08-19T08:38:44;101358.78;;;23.61;79.17
61119;BME280;51448;51.660;5.824;2022-08-19T08:47:09;101369.41;;;23.63;78.64
61119;BME280;51448;51.660;5.824;2022-08-19T08:49:46;101369.53;;;23.73;78.26
61119;BME280;51448;51.660;5.824;2022-08-19T08:52:22;101365.00;;;23.86;78.11
61119;BME280;51448;51.660;5.824;2022-08-19T08:55:05;101362.13;;;24.00;77.15
61119;BME280;51448;51.660;5.824;2022-08-19T08:57:52;101362.88;;;24.14;76.99
61119;BME280;51448;51.660;5.824;2022-08-19T09:00:51;101357.56;;;24.25;76.72
61119;BME280;51448;51.660;5.824;2022-08-19T09:03:22;101361.13;;;24.37;76.81
61119;BME280;51448;51.660;5.824;2022-08-19T09:11:15;101353.94;;;24.71;73.54
61119;BME280;51448;51.660;5.824;2022-08-19T09:14:34;101356.53;;;24.73;73.22
61119;BME280;51448;51.660;5.824;2022-08-19T09:17:20;101361.78;;;24.74;72.46
61119;BME280;51448;51.660;5.824;2022-08-19T09:22:37;101349.53;;;24.81;72.44
61119;BME280;51448;51.660;5.824;2022-08-19T09:25:08;101352.72;;;24.86;71.70
61119;BME280;51448;51.660;5.824;2022-08-19T09:27:38;101351.41;;;24.92;71.28
61119;BME280;51448;51.660;5.824;2022-08-19T09:30:16;101358.34;;;24.95;70.77
61119;BME280;51448;51.660;5.824;2022-08-19T09:32:46;101358.09;;;24.98;70.37
61119;BME280;51448;51.660;5.824;2022-08-19T09:35:24;101352.13;;;24.94;70.52
61119;BME280;51448;51.660;5.824;2022-08-19T09:37:57;101353.34;;;24.90;70.75
61119;BME280;51448;51.660;5.824;2022-08-19T09:40:27;101351.00;;;24.97;70.66
61119;BME280;51448;51.660;5.824;2022-08-19T09:42:58;101369.34;;;25.03;70.93
61119;BME280;51448;51.660;5.824;2022-08-19T09:45:40;101358.09;;;25.09;70.99
61119;BME280;51448;51.660;5.824;2022-08-19T09:48:07;101370.78;;;25.18;70.42
61119;BME280;51448;51.660;5.824;2022-08-19T09:50:35;101352.22;;;25.15;69.54
61119;BME280;51448;51.660;5.824;2022-08-19T09:53:18;101362.25;;;25.13;68.85
61119;BME280;51448;51.660;5.824;2022-08-19T09:55:54;101371.28;;;25.12;68.60
61119;BME280;51448;51.660;5.824;2022-08-19T09:58:22;101372.75;;;25.16;69.16
61119;BME280;51448;51.660;5.824;2022-08-19T10:00:55;101374.72;;;25.25;69.05
61119;BME280;51448;51.660;5.824;2022-08-19T10:03:25;101367.72;;;25.34;68.15
61119;BME280;51448;51.660;5.824;2022-08-19T10:05:58;101383.66;;;25.37;68.02
61119;BME280;51448;51.660;5.824;2022-08-19T10:08:30;101374.97;;;25.34;67.71
61119;BME280;51448;51.660;5.824;2022-08-19T10:11:03;101387.19;;;25.15;67.59
61119;BME280;51448;51.660;5.824;2022-08-19T10:13:51;101380.84;;;25.05;68.11
61119;BME280;51448;51.660;5.824;2022-08-19T10:16:21;101380.09;;;24.92;67.64
61119;BME280;51448;51.660;5.824;2022-08-19T10:18:56;101379.63;;;24.98;68.65
61119;BME280;51448;51.660;5.824;2022-08-19T10:21:28;101385.00;;;24.98;67.07
61119;BME280;51448;51.660;5.824;2022-08-19T10:24:00;101378.53;;;25.00;67.17
61119;BME280;51448;51.660;5.824;2022-08-19T10:26:35;101372.53;;;24.97;67.41
61119;BME280;51448;51.660;5.824;2022-08-19T10:29:05;101371.03;;;25.04;67.82
61119;BME280;51448;51.660;5.824;2022-08-19T10:31:35;101377.28;;;25.16;68.94
61119;BME280;51448;51.660;5.824;2022-08-19T10:34:24;101371.31;;;25.23;66.88
61119;BME280;51448;51.660;5.824;2022-08-19T10:36:56;101378.16;;;25.27;65.68
61119;BME280;51448;51.660;5.824;2022-08-19T10:39:32;101383.28;;;25.30;65.82
61119;BME280;51448;51.660;5.824;2022-08-19T10:42:09;101384.16;;;25.31;66.20
61119;BME280;51448;51.660;5.824;2022-08-19T10:44:37;101378.28;;;25.26;66.25
61119;BME280;51448;51.660;5.824;2022-08-19T10:47:05;101374.84;;;25.24;65.65
61119;BME280;51448;51.660;5.824;2022-08-19T10:49:50;101377.31;;;25.27;65.53
61119;BME280;51448;51.660;5.824;2022-08-19T10:52:48;101377.44;;;25.25;64.57
61119;BME280;51448;51.660;5.824;2022-08-19T10:55:22;101371.19;;;25.25;64.67
61119;BME280;51448;51.660;5.824;2022-08-19T10:58:11;101362.38;;;25.23;64.71
61119;BME280;51448;51.660;5.824;2022-08-19T11:00:41;101368.34;;;25.26;65.08
61119;BME280;51448;51.660;5.824;2022-08-19T11:03:14;101363.06;;;25.36;65.45
61119;BME280;51448;51.660;5.824;2022-08-19T11:05:41;101372.72;;;25.50;65.58
61119;BME280;51448;51.660;5.824;2022-08-19T11:08:09;101366.31;;;25.51;64.48
61119;BME280;51448;51.660;5.824;2022-08-19T11:10:51;101366.22;;;25.53;63.85
61119;BME280;51448;51.660;5.824;2022-08-19T11:13:23;101374.69;;;25.48;64.22
61119;BME280;51448;51.660;5.824;2022-08-19T11:16:00;101370.13;;;25.60;64.26
61119;BME280;51448;51.660;5.824;2022-08-19T11:18:36;101374.38;;;25.62;63.37
61119;BME280;51448;51.660;5.824;2022-08-19T11:23:48;101374.22;;;25.75;63.77
61119;BME280;51448;51.660;5.824;2022-08-19T11:26:19;101376.50;;;25.91;63.57
61119;BME280;51448;51.660;5.824;2022-08-19T11:28:50;101372.44;;;25.97;63.74
61119;BME280;51448;51.660;5.824;2022-08-19T11:31:24;101373.28;;;25.97;63.03
61119;BME280;51448;51.660;5.824;2022-08-19T11:33:57;101370.13;;;25.92;62.29
61119;BME280;51448;51.660;5.824;2022-08-19T11:36:27;101364.38;;;25.97;62.84
61119;BME280;51448;51.660;5.824;2022-08-19T11:38:56;101363.31;;;26.09;63.26
61119;BME280;51448;51.660;5.824;2022-08-19T11:41:24;101364.06;;;26.21;61.89
61119;BME280;51448;51.660;5.824;2022-08-19T11:43:53;101356.06;;;26.30;62.17
61119;BME280;51448;51.660;5.824;2022-08-19T11:46:24;101350.00;;;26.38;62.36
61119;BME280;51448;51.660;5.824;2022-08-19T11:48:53;101358.81;;;26.40;62.03
61119;BME280;51448;51.660;5.824;2022-08-19T11:51:23;101361.50;;;26.40;61.07
61119;BME280;51448;51.660;5.824;2022-08-19T11:53:53;101353.34;;;26.30;61.84
61119;BME280;51448;51.660;5.824;2022-08-19T11:56:23;101362.03;;;26.34;62.18
61119;BME280;51448;51.660;5.824;2022-08-19T11:58:53;101355.41;;;26.38;61.15
61119;BME280;51448;51.660;5.824;2022-08-19T12:01:25;101353.69;;;26.37;60.61
61119;BME280;51448;51.660;5.824;2022-08-19T12:03:55;101351.97;;;26.36;60.40
61119;BME280;51448;51.660;5.824;2022-08-19T12:06:29;101343.91;;;26.36;61.31
61119;BME280;51448;51.660;5.824;2022-08-19T12:09:01;101354.03;;;26.44;61.00
61119;BME280;51448;51.660;5.824;2022-08-19T12:11:31;101353.47;;;26.50;60.81
61119;BME280;51448;51.660;5.824;2022-08-19T12:14:00;101352.94;;;26.56;60.16
61119;BME280;51448;51.660;5.824;2022-08-19T12:16:29;101353.28;;;26.63;61.02
61119;BME280;51448;51.660;5.824;2022-08-19T12:19:01;101344.66;;;26.69;61.03
61119;BME280;51448;51.660;5.824;2022-08-19T12:21:34;101345.41;;;26.81;60.29
61119;BME280;51448;51.660;5.824;2022-08-19T12:24:04;101350.25;;;26.87;60.45
61119;BME280;51448;51.660;5.824;2022-08-19T12:26:33;101348.84;;;26.83;59.90
61119;BME280;51448;51.660;5.824;2022-08-19T12:29:20;101351.38;;;26.84;60.12
61119;BME280;51448;51.660;5.824;2022-08-19T12:31:51;101354.66;;;26.88;59.46
61119;BME280;51448;51.660;5.824;2022-08-19T12:34:18;101360.34;;;26.95;60.00
61119;BME280;51448;51.660;5.824;2022-08-19T12:36:47;101349.72;;;27.03;60.22
61119;BME280;51448;51.660;5.824;2022-08-19T12:39:16;101347.19;;;27.11;59.87
61119;BME280;51448;51.660;5.824;2022-08-19T12:41:44;101353.84;;;27.07;58.80
61119;BME280;51448;51.660;5.824;2022-08-19T12:44:22;101343.78;;;26.99;58.68
61119;BME280;51448;51.660;5.824;2022-08-19T12:46:58;101342.34;;;26.95;59.04
61119;BME280;51448;51.660;5.824;2022-08-19T12:49:28;101342.63;;;27.02;59.95
61119;BME280;51448;51.660;5.824;2022-08-19T12:52:16;101339.53;;;27.16;59.03
61119;BME280;51448;51.660;5.824;2022-08-19T12:54:51;101333.59;;;27.22;58.81
61119;BME280;51448;51.660;5.824;2022-08-19T12:57:28;101324.50;;;27.23;57.80
61119;BME280;51448;51.660;5.824;2022-08-19T13:00:10;101322.53;;;27.25;58.42
61119;BME280;51448;51.660;5.824;2022-08-19T13:02:43;101327.91;;;27.25;58.27
61119;BME280;51448;51.660;5.824;2022-08-19T13:05:15;101323.41;;;27.26;57.93
61119;BME280;51448;51.660;5.824;2022-08-19T13:07:56;101312.44;;;27.27;58.29
61119;BME280;51448;51.660;5.824;2022-08-19T13:10:31;101317.72;;;27.39;58.12
61119;BME280;51448;51.660;5.824;2022-08-19T13:13:05;101322.25;;;27.48;58.82
61119;BME280;51448;51.660;5.824;2022-08-19T13:15:36;101322.00;;;27.61;57.59
61119;BME280;51448;51.660;5.824;2022-08-19T13:18:08;101314.56;;;27.73;57.58
61119;BME280;51448;51.660;5.824;2022-08-19T13:20:38;101312.00;;;27.81;58.36
61119;BME280;51448;51.660;5.824;2022-08-19T13:23:18;101318.59;;;27.88;57.43
61119;BME280;51448;51.660;5.824;2022-08-19T13:25:58;101312.47;;;27.96;57.48
61119;BME280;51448;51.660;5.824;2022-08-19T13:28:27;101309.31;;;28.00;57.73
61119;BME280;51448;51.660;5.824;2022-08-19T13:31:18;101313.44;;;28.04;57.25
61119;BME280;51448;51.660;5.824;2022-08-19T13:34:05;101309.31;;;28.10;57.18